createdAt,value
2022-11-29T00:00:47.071Z,23.53
2022-11-29T00:03:15.786Z,24.17
2022-11-29T00:05:51.762Z,29.00
2022-11-29T00:08:21.700Z,30.90
2022-11-29T00:10:50.161Z,30.20
2022-11-29T00:13:24.680Z,27.60
2022-11-29T00:15:59.331Z,27.90
2022-11-29T00:18:34.877Z,26.67
2022-11-29T00:21:09.463Z,25.93
2022-11-29T00:23:49.846Z,27.30
2022-11-29T00:26:21.724Z,26.47
2022-11-29T00:28:54.948Z,24.17
2022-11-29T00:31:32.805Z,26.37
2022-11-29T00:34:02.009Z,25.67
2022-11-29T00:36:33.203Z,24.57
2022-11-29T00:39:01.611Z,23.10
2022-11-29T00:41:29.916Z,22.83
2022-11-29T00:44:00.986Z,24.40
2022-11-29T00:46:36.241Z,31.73
2022-11-29T00:49:05.997Z,28.80
2022-11-29T00:51:49.328Z,34.00
2022-11-29T00:54:19.585Z,29.60
2022-11-29T00:56:58.355Z,28.87
2022-11-29T00:59:36.207Z,26.40
2022-11-29T01:02:10.123Z,30.87
2022-11-29T01:04:42.319Z,34.33
2022-11-29T01:07:12.295Z,31.57
2022-11-29T01:09:47.308Z,29.10
2022-11-29T01:12:16.332Z,33.80
2022-11-29T01:14:51.994Z,34.57
2022-11-29T01:17:24.807Z,32.50
2022-11-29T01:19:53.194Z,32.07
2022-11-29T01:22:21.816Z,35.87
2022-11-29T01:24:51.882Z,37.00
2022-11-29T01:27:33.583Z,36.27
2022-11-29T01:30:04.518Z,28.43
2022-11-29T01:32:38.910Z,27.90
2022-11-29T01:35:17.418Z,30.90
2022-11-29T01:37:47.592Z,36.07
2022-11-29T01:40:16.264Z,31.03
2022-11-29T01:42:46.448Z,37.17
2022-11-29T01:45:26.321Z,32.60
2022-11-29T01:47:59.156Z,33.03
2022-11-29T01:50:31.823Z,27.40
2022-11-29T01:53:05.592Z,31.97
2022-11-29T01:55:38.899Z,28.27
2022-11-29T01:58:10.420Z,31.77
2022-11-29T02:00:44.872Z,26.83
2022-11-29T02:03:21.010Z,30.07
2022-11-29T02:05:54.248Z,29.13
2022-11-29T02:08:28.558Z,30.30
2022-11-29T02:11:06.902Z,27.47
2022-11-29T02:13:39.521Z,27.07
2022-11-29T02:16:20.524Z,28.87
2022-11-29T02:19:01.065Z,32.23
2022-11-29T02:21:35.720Z,28.10
2022-11-29T02:24:38.701Z,26.43
2022-11-29T02:27:58.972Z,26.77
2022-11-29T02:30:45.291Z,29.40
2022-11-29T02:33:46.649Z,29.60
2022-11-29T02:36:34.785Z,27.37
2022-11-29T02:39:40.328Z,29.83
2022-11-29T02:42:27.056Z,31.87
2022-11-29T02:45:07.411Z,28.47
2022-11-29T02:47:46.236Z,32.10
2022-11-29T02:50:33.628Z,29.23
2022-11-29T02:53:06.775Z,31.30
2022-11-29T02:55:51.323Z,30.37
2022-11-29T02:58:29.553Z,28.47
2022-11-29T03:01:02.004Z,28.03
2022-11-29T03:03:48.232Z,25.70
2022-11-29T03:06:29.314Z,25.63
2022-11-29T03:09:23.490Z,26.97
2022-11-29T03:12:08.336Z,22.57
2022-11-29T03:14:57.637Z,28.83
2022-11-29T03:17:41.734Z,24.40
2022-11-29T03:20:29.461Z,22.57
2022-11-29T03:23:16.171Z,21.87
2022-11-29T03:25:52.482Z,24.27
2022-11-29T03:28:38.504Z,29.10
2022-11-29T03:31:34.801Z,25.03
2022-11-29T03:34:09.386Z,25.57
2022-11-29T03:36:46.769Z,24.83
2022-11-29T03:39:47.695Z,21.33
2022-11-29T03:42:26.456Z,20.77
2022-11-29T03:45:02.077Z,24.17
2022-11-29T03:47:44.819Z,20.73
2022-11-29T03:50:17.946Z,19.37
2022-11-29T03:52:56.629Z,25.20
2022-11-29T03:56:00.513Z,21.57
2022-11-29T03:59:17.638Z,23.77
2022-11-29T04:02:07.578Z,19.57
2022-11-29T04:05:15.791Z,20.53
2022-11-29T04:08:12.877Z,20.40
2022-11-29T04:11:24.981Z,20.47
2022-11-29T04:14:05.834Z,20.43
2022-11-29T04:17:13.813Z,19.97
2022-11-29T04:20:06.214Z,15.87
2022-11-29T04:23:02.107Z,18.97
2022-11-29T04:25:51.061Z,22.90
2022-11-29T04:28:55.264Z,18.10
2022-11-29T04:31:51.208Z,17.17
2022-11-29T04:34:31.037Z,19.67
2022-11-29T04:37:12.013Z,21.80
2022-11-29T04:40:07.434Z,18.73
2022-11-29T04:42:53.408Z,20.17
2022-11-29T04:46:05.885Z,18.50
2022-11-29T04:49:35.870Z,19.87
2022-11-29T04:52:37.208Z,21.43
2022-11-29T04:55:23.738Z,17.97
2022-11-29T04:58:01.518Z,20.17
2022-11-29T05:00:31.260Z,18.53
2022-11-29T05:03:13.060Z,17.10
2022-11-29T05:05:50.601Z,18.83
2022-11-29T05:08:30.373Z,18.23
2022-11-29T05:11:05.408Z,19.03
2022-11-29T05:13:49.859Z,18.40
2022-11-29T05:16:33.699Z,18.07
2022-11-29T05:19:36.718Z,16.90
2022-11-29T05:22:14.572Z,20.00
2022-11-29T05:25:08.218Z,17.77
2022-11-29T05:27:49.253Z,16.93
2022-11-29T05:31:04.080Z,21.03
2022-11-29T05:33:58.344Z,16.47
2022-11-29T05:36:55.655Z,16.53
2022-11-29T05:39:35.419Z,17.43
2022-11-29T05:42:23.848Z,16.70
2022-11-29T05:44:56.514Z,18.20
2022-11-29T05:47:53.240Z,19.83
2022-11-29T05:50:36.226Z,17.90
2022-11-29T05:53:28.737Z,18.70
2022-11-29T05:56:31.718Z,17.90
2022-11-29T05:59:44.661Z,19.33
2022-11-29T06:03:08.952Z,17.63
2022-11-29T06:05:56.845Z,15.83
2022-11-29T06:08:44.065Z,18.83
2022-11-29T06:11:21.244Z,17.87
2022-11-29T06:14:02.748Z,17.90
2022-11-29T06:17:05.947Z,15.60
2022-11-29T06:19:49.455Z,16.13
2022-11-29T06:22:40.434Z,17.37
2022-11-29T06:25:22.924Z,15.60
2022-11-29T06:28:21.548Z,12.93
2022-11-29T06:30:59.659Z,15.67
2022-11-29T06:33:34.963Z,15.00
2022-11-29T06:36:13.509Z,14.47
2022-11-29T06:38:45.042Z,17.77
2022-11-29T06:41:26.650Z,15.57
2022-11-29T06:44:06.353Z,17.63
2022-11-29T06:46:45.953Z,15.87
2022-11-29T06:49:26.497Z,14.03
2022-11-29T06:52:02.588Z,15.97
2022-11-29T06:54:40.746Z,17.27
2022-11-29T06:57:13.541Z,17.67
2022-11-29T06:59:52.009Z,16.40
2022-11-29T07:02:38.656Z,17.43
2022-11-29T07:05:15.384Z,13.23
2022-11-29T07:07:51.189Z,14.73
2022-11-29T07:10:21.520Z,17.57
2022-11-29T07:12:50.814Z,12.63
2022-11-29T07:15:28.294Z,14.27
2022-11-29T07:18:18.458Z,19.43
2022-11-29T07:21:10.199Z,14.63
2022-11-29T07:23:51.189Z,13.53
2022-11-29T07:26:26.253Z,13.90
2022-11-29T07:29:03.049Z,15.37
2022-11-29T07:31:40.949Z,13.30
2022-11-29T07:34:12.799Z,13.23
2022-11-29T07:36:46.708Z,10.87
2022-11-29T07:39:25.208Z,11.27
2022-11-29T07:42:04.309Z,17.47
2022-11-29T07:44:39.217Z,14.63
2022-11-29T07:47:09.725Z,15.37
2022-11-29T07:49:40.225Z,17.43
2022-11-29T07:52:18.418Z,12.33
2022-11-29T07:54:52.515Z,12.97
2022-11-29T07:57:38.241Z,19.13
2022-11-29T08:00:07.877Z,14.20
2022-11-29T08:02:38.001Z,12.07
2022-11-29T08:05:07.121Z,14.00
2022-11-29T08:07:49.857Z,14.10
2022-11-29T08:10:32.666Z,15.90
2022-11-29T08:13:09.890Z,15.93
2022-11-29T08:15:38.180Z,14.13
2022-11-29T08:18:06.824Z,13.17
2022-11-29T08:20:36.342Z,12.57
2022-11-29T08:23:07.620Z,13.90
2022-11-29T08:25:42.506Z,14.77
2022-11-29T08:28:11.099Z,15.87
2022-11-29T08:30:40.295Z,18.87
2022-11-29T08:33:18.180Z,19.47
2022-11-29T08:35:51.274Z,15.17
2022-11-29T08:38:22.671Z,15.47
2022-11-29T08:40:51.037Z,15.67
2022-11-29T08:43:22.395Z,16.93
2022-11-29T08:46:01.568Z,19.37
2022-11-29T08:48:32.993Z,15.93
2022-11-29T08:51:01.270Z,17.07
2022-11-29T08:53:43.140Z,16.50
2022-11-29T08:56:59.576Z,19.83
2022-11-29T08:59:02.241Z,13.77
2022-11-29T09:01:30.581Z,14.47
2022-11-29T09:04:05.612Z,13.57
2022-11-29T09:06:35.877Z,16.47
2022-11-29T09:09:12.335Z,15.60
2022-11-29T09:11:53.589Z,16.33
2022-11-29T09:14:27.520Z,13.67
2022-11-29T09:17:01.228Z,19.83
2022-11-29T09:19:31.901Z,15.47
2022-11-29T09:22:06.234Z,17.73
2022-11-29T09:24:43.824Z,18.03
2022-11-29T09:27:19.060Z,13.17
2022-11-29T09:29:50.621Z,15.47
2022-11-29T09:32:31.242Z,17.10
2022-11-29T09:35:04.778Z,11.43
2022-11-29T09:37:44.588Z,12.37
2022-11-29T09:40:27.368Z,16.77
2022-11-29T09:43:03.233Z,15.37
2022-11-29T09:45:33.005Z,11.47
2022-11-29T09:48:42.657Z,9.60
2022-11-29T09:51:17.351Z,13.17
2022-11-29T09:53:52.684Z,11.57
2022-11-29T09:56:28.411Z,14.03
2022-11-29T09:59:10.082Z,12.40
2022-11-29T10:01:49.578Z,15.20
2022-11-29T10:04:25.025Z,11.40
2022-11-29T10:06:57.784Z,12.53
2022-11-29T10:09:33.921Z,15.20
2022-11-29T10:12:28.171Z,16.37
2022-11-29T10:15:01.242Z,15.07
2022-11-29T10:17:37.998Z,12.83
2022-11-29T10:20:10.669Z,15.67
2022-11-29T10:22:43.126Z,14.40
2022-11-29T10:25:14.987Z,15.17
2022-11-29T10:28:02.589Z,16.00
2022-11-29T10:30:33.256Z,18.93
2022-11-29T10:33:12.251Z,14.33
2022-11-29T10:35:41.154Z,15.97
2022-11-29T10:38:30.894Z,14.30
2022-11-29T10:41:05.607Z,17.27
2022-11-29T10:43:38.007Z,14.13
2022-11-29T10:46:12.865Z,18.20
2022-11-29T10:48:48.427Z,20.40
2022-11-29T10:51:17.663Z,19.77
2022-11-29T10:53:48.529Z,20.33
2022-11-29T10:56:24.315Z,14.13
2022-11-29T10:59:03.370Z,14.53
2022-11-29T11:01:38.633Z,16.33
2022-11-29T11:04:29.132Z,16.50
2022-11-29T11:07:00.111Z,17.33
2022-11-29T11:09:46.521Z,17.17
2022-11-29T11:12:31.751Z,18.03
2022-11-29T11:15:25.186Z,13.70
2022-11-29T11:18:07.050Z,11.33
2022-11-29T11:20:40.829Z,12.47
2022-11-29T11:23:28.416Z,15.83
2022-11-29T11:26:09.649Z,15.27
2022-11-29T11:28:42.615Z,13.53
2022-11-29T11:31:23.909Z,16.87
2022-11-29T11:34:03.370Z,14.87
2022-11-29T11:36:38.630Z,14.43
2022-11-29T11:39:20.298Z,13.90
2022-11-29T11:42:14.537Z,15.43
2022-11-29T11:44:54.519Z,13.10
2022-11-29T11:47:35.828Z,14.80
2022-11-29T11:50:21.050Z,14.20
2022-11-29T11:52:59.381Z,14.93
2022-11-29T11:55:38.317Z,15.70
2022-11-29T11:58:28.011Z,16.20
2022-11-29T12:01:04.728Z,16.37
2022-11-29T12:04:16.531Z,16.07
2022-11-29T12:07:03.075Z,15.77
2022-11-29T12:09:47.796Z,18.40
2022-11-29T12:12:24.088Z,16.73
2022-11-29T12:14:59.043Z,22.87
2022-11-29T12:17:46.396Z,17.50
2022-11-29T12:20:39.310Z,16.83
2022-11-29T12:23:33.368Z,17.73
2022-11-29T12:26:55.370Z,16.60
2022-11-29T12:29:42.236Z,15.57
2022-11-29T12:32:47.573Z,17.13
2022-11-29T12:35:59.669Z,16.13
2022-11-29T12:38:50.749Z,15.20
2022-11-29T12:41:43.397Z,15.47
2022-11-29T12:44:51.406Z,16.97
2022-11-29T12:47:50.337Z,15.13
2022-11-29T12:50:36.799Z,10.37
2022-11-29T12:53:26.969Z,12.67
2022-11-29T12:56:07.951Z,12.97
2022-11-29T12:58:53.067Z,11.90
2022-11-29T13:01:50.982Z,12.90
2022-11-29T13:04:36.443Z,14.47
2022-11-29T13:07:29.288Z,12.67
2022-11-29T13:10:45.157Z,13.70
2022-11-29T13:13:37.297Z,12.37
2022-11-29T13:16:31.073Z,13.17
2022-11-29T13:19:06.665Z,13.77
2022-11-29T13:21:55.645Z,13.77
2022-11-29T13:24:50.500Z,13.93
2022-11-29T13:27:33.855Z,15.43
2022-11-29T13:30:21.588Z,15.07
2022-11-29T13:36:13.382Z,16.83
2022-11-29T13:38:54.853Z,15.83
2022-11-29T13:41:37.158Z,15.80
2022-11-29T13:44:19.862Z,15.53
2022-11-29T13:47:03.746Z,15.13
2022-11-29T13:50:00.596Z,14.47
2022-11-29T13:52:54.659Z,14.87
2022-11-29T13:55:43.490Z,15.23
2022-11-29T13:58:56.836Z,15.30
2022-11-29T14:01:30.901Z,15.07
2022-11-29T14:04:19.601Z,16.00
2022-11-29T14:06:58.988Z,14.37
2022-11-29T14:09:36.283Z,16.53
2022-11-29T14:12:26.407Z,14.67
2022-11-29T14:15:07.865Z,13.87
2022-11-29T14:17:52.607Z,14.13
2022-11-29T14:20:49.251Z,14.10
2022-11-29T14:23:54.580Z,14.30
2022-11-29T14:26:50.080Z,15.20
2022-11-29T14:31:28.115Z,12.80
2022-11-29T14:33:27.693Z,13.97
2022-11-29T14:37:27.297Z,12.93
2022-11-29T14:39:54.665Z,13.27
2022-11-29T14:42:29.248Z,13.10
2022-11-29T14:45:00.931Z,11.73
2022-11-29T14:47:57.329Z,14.37
2022-11-29T14:50:40.329Z,13.50
2022-11-29T14:53:09.111Z,14.33
2022-11-29T14:55:44.965Z,14.77
2022-11-29T14:58:25.934Z,13.73
2022-11-29T15:01:18.647Z,14.40
2022-11-29T15:03:56.401Z,13.77
2022-11-29T15:06:53.019Z,12.87
2022-11-29T15:09:31.577Z,12.40
2022-11-29T15:12:11.508Z,13.10
2022-11-29T15:14:52.046Z,13.80
2022-11-29T15:17:54.670Z,14.50
2022-11-29T15:21:28.662Z,15.60
2022-11-29T15:24:36.459Z,14.77
2022-11-29T15:28:02.966Z,13.83
2022-11-29T15:30:52.892Z,12.87
2022-11-29T15:34:05.826Z,14.00
2022-11-29T15:36:44.821Z,13.87
2022-11-29T15:39:59.990Z,13.07
2022-11-29T15:43:03.358Z,15.07
2022-11-29T15:45:37.501Z,23.47
2022-11-29T15:48:13.907Z,21.23
2022-11-29T15:50:48.321Z,14.97
2022-11-29T15:53:18.816Z,14.87
2022-11-29T15:55:50.521Z,14.30
2022-11-29T15:58:18.876Z,14.83
2022-11-29T16:00:49.940Z,10.27
2022-11-29T16:03:31.698Z,13.30
2022-11-29T16:06:23.860Z,12.10
2022-11-29T16:08:52.248Z,10.73
2022-11-29T16:11:22.902Z,11.17
2022-11-29T16:14:04.949Z,9.80
2022-11-29T16:16:36.352Z,7.93
2022-11-29T16:19:12.444Z,10.07
2022-11-29T16:21:46.312Z,10.20
2022-11-29T16:24:15.685Z,11.33
2022-11-29T16:26:46.756Z,12.63
2022-11-29T16:29:24.629Z,9.00
2022-11-29T16:31:53.518Z,9.67
2022-11-29T16:34:29.998Z,8.83
2022-11-29T16:37:13.960Z,8.90
2022-11-29T16:39:42.317Z,12.77
2022-11-29T16:42:25.781Z,10.63
2022-11-29T16:45:38.614Z,10.37
2022-11-29T16:48:28.819Z,10.50
2022-11-29T16:51:19.099Z,10.43
2022-11-29T16:53:49.936Z,11.27
2022-11-29T16:56:26.161Z,10.67
2022-11-29T16:59:20.727Z,9.77
2022-11-29T17:01:58.645Z,8.30
2022-11-29T17:04:27.047Z,11.10
2022-11-29T17:06:55.893Z,9.10
2022-11-29T17:09:28.794Z,8.10
2022-11-29T17:11:59.986Z,8.77
2022-11-29T17:14:35.226Z,11.83
2022-11-29T17:17:03.718Z,16.67
2022-11-29T17:19:32.087Z,17.47
2022-11-29T17:22:00.510Z,19.27
2022-11-29T17:27:18.323Z,11.63
2022-11-29T19:06:52.277Z,12.30
2022-11-29T19:09:22.138Z,12.33
2022-11-29T19:11:53.653Z,12.77
2022-11-29T19:14:26.423Z,11.20
2022-11-29T19:17:03.776Z,11.37
2022-11-29T19:19:32.542Z,12.43
2022-11-29T19:22:04.123Z,14.03
2022-11-29T19:24:33.178Z,12.43
2022-11-29T19:27:04.757Z,13.50
2022-11-29T19:29:39.393Z,13.77
2022-11-29T19:32:10.576Z,16.43
2022-11-29T19:34:38.803Z,13.07
2022-11-29T19:37:11.723Z,12.20
2022-11-29T19:39:43.409Z,12.83
2022-11-29T19:42:11.832Z,11.57
2022-11-29T19:45:14.973Z,13.70
2022-11-29T19:47:30.377Z,14.13
2022-11-29T19:50:02.348Z,15.43
2022-11-29T19:52:34.747Z,13.83
2022-11-29T19:55:02.963Z,15.13
2022-11-29T19:57:34.556Z,14.97
2022-11-29T20:00:03.060Z,12.93
2022-11-29T20:02:31.791Z,13.20
2022-11-29T20:05:00.275Z,12.90
2022-11-29T20:07:28.413Z,13.13
2022-11-29T20:09:57.977Z,12.30
2022-11-29T20:12:26.353Z,13.27
2022-11-29T20:14:54.583Z,11.60
2022-11-29T20:17:25.291Z,14.87
2022-11-29T20:19:54.364Z,13.30
2022-11-29T20:22:23.882Z,13.73
2022-11-29T20:24:54.747Z,8.83
2022-11-29T20:27:34.263Z,10.40
2022-11-29T20:30:02.577Z,11.43
2022-11-29T20:32:39.962Z,11.00
2022-11-29T20:35:10.172Z,14.37
2022-11-29T20:38:15.758Z,15.57
2022-11-29T20:40:50.226Z,12.67
2022-11-29T20:43:21.378Z,12.87
2022-11-29T20:45:50.897Z,11.47
2022-11-29T20:48:21.582Z,11.83
2022-11-29T20:50:54.235Z,11.80
2022-11-29T20:53:37.621Z,12.90
2022-11-29T20:56:06.183Z,14.40
2022-11-29T20:58:36.884Z,11.90
2022-11-29T21:01:05.241Z,10.70
2022-11-29T21:03:58.979Z,11.57
2022-11-29T21:06:32.051Z,11.07
2022-11-29T21:09:09.188Z,11.50
2022-11-29T21:11:53.206Z,10.17
2022-11-29T21:14:26.378Z,11.97
2022-11-29T21:16:58.009Z,11.30
2022-11-29T21:19:27.442Z,10.97
2022-11-29T21:22:02.925Z,10.90
2022-11-29T21:24:36.555Z,8.07
2022-11-29T21:27:10.260Z,9.90
2022-11-29T21:29:43.732Z,10.97
2022-11-29T21:32:19.445Z,10.10
2022-11-29T21:34:47.864Z,10.87
2022-11-29T21:37:17.802Z,10.87
2022-11-29T21:39:45.987Z,10.20
2022-11-29T21:42:14.380Z,9.93
2022-11-29T21:44:44.280Z,11.17
2022-11-29T21:47:13.106Z,10.97
2022-11-29T21:49:41.925Z,11.20
2022-11-29T21:52:10.200Z,10.17
2022-11-29T21:54:38.474Z,11.33
2022-11-29T21:57:06.779Z,11.30
2022-11-29T21:59:40.703Z,11.20
2022-11-29T22:02:10.666Z,10.57
2022-11-29T22:04:39.113Z,10.50
2022-11-29T22:07:07.387Z,10.93
2022-11-29T22:09:35.589Z,11.10
2022-11-29T22:12:25.718Z,10.63
2022-11-29T22:14:53.330Z,11.33
2022-11-29T22:17:23.011Z,10.70
2022-11-29T22:19:51.269Z,9.90
2022-11-29T22:22:20.590Z,10.87
2022-11-29T22:24:49.086Z,9.83
2022-11-29T22:27:18.683Z,10.30
2022-11-29T22:29:47.061Z,10.93
2022-11-29T22:32:15.203Z,10.37
2022-11-29T22:34:48.371Z,9.90
2022-11-29T22:37:16.792Z,8.77
2022-11-29T22:39:45.162Z,10.20
2022-11-29T22:42:13.267Z,8.50
2022-11-29T22:44:44.207Z,8.93
2022-11-29T22:47:15.730Z,7.73
2022-11-29T22:49:45.446Z,7.97
2022-11-29T22:52:13.731Z,9.50
2022-11-29T22:54:45.815Z,9.00
2022-11-29T22:57:16.919Z,8.63
2022-11-29T22:59:45.508Z,9.43
2022-11-29T23:02:14.217Z,8.90
2022-11-29T23:04:51.481Z,9.47
2022-11-29T23:07:21.165Z,8.67
2022-11-29T23:09:49.514Z,9.70
2022-11-29T23:12:18.053Z,9.83
2022-11-29T23:17:28.443Z,8.70
2022-11-29T23:19:56.668Z,9.03
2022-11-29T23:22:26.536Z,8.87
2022-11-29T23:24:54.749Z,8.53
2022-11-29T23:27:22.930Z,7.80
2022-11-29T23:29:51.143Z,7.77
2022-11-29T23:32:24.616Z,7.87
2022-11-29T23:34:52.786Z,8.80
2022-11-29T23:37:21.204Z,10.10
2022-11-29T23:39:52.200Z,8.87
2022-11-29T23:42:27.682Z,10.13
2022-11-29T23:44:57.085Z,9.23
2022-11-29T23:47:27.098Z,9.40
2022-11-29T23:49:55.407Z,8.70
2022-11-29T23:52:23.666Z,7.13
2022-11-29T23:54:53.325Z,8.53
2022-11-29T23:57:24.004Z,9.00
2022-11-29T23:59:52.259Z,8.70
